sensor_id;sensor_type;location;lat;lon;timestamp;P1;durP1;ratioP1;P2;durP2;ratioP2
63114;SDS011;49208;50.874;6.466;2022-12-13T07:03:07;47.33;;;18.40;;
63114;SDS011;49208;50.874;6.466;2022-12-13T07:05:33;41.65;;;18.30;;
63114;SDS011;49208;50.874;6.466;2022-12-13T07:08:02;51.80;;;19.33;;
63114;SDS011;49208;50.874;6.466;2022-12-13T07:10:27;49.40;;;18.47;;
63114;SDS011;49208;50.874;6.466;2022-12-13T07:12:53;52.60;;;18.67;;
63114;SDS011;49208;50.874;6.466;2022-12-13T07:15:18;51.47;;;20.23;;
63114;SDS011;49208;50.874;6.466;2022-12-13T07:17:43;51.17;;;20.40;;
63114;SDS011;49208;50.874;6.466;2022-12-13T07:20:12;49.70;;;18.73;;
63114;SDS011;49208;50.874;6.466;2022-12-13T07:22:39;53.90;;;19.05;;
63114;SDS011;49208;50.874;6.466;2022-12-13T07:25:05;56.97;;;18.87;;
63114;SDS011;49208;50.874;6.466;2022-12-13T07:27:31;45.63;;;18.87;;
63114;SDS011;49208;50.874;6.466;2022-12-13T07:29:58;51.20;;;17.80;;
63114;SDS011;49208;50.874;6.466;2022-12-13T07:32:23;50.10;;;20.17;;
63114;SDS011;49208;50.874;6.466;2022-12-13T07:34:49;51.37;;;19.40;;
63114;SDS011;49208;50.874;6.466;2022-12-13T07:37:14;51.77;;;18.70;;
63114;SDS011;49208;50.874;6.466;2022-12-13T07:39:40;46.50;;;20.73;;
63114;SDS011;49208;50.874;6.466;2022-12-13T07:42:05;43.70;;;19.03;;
63114;SDS011;49208;50.874;6.466;2022-12-13T07:44:31;53.47;;;19.50;;
63114;SDS011;49208;50.874;6.466;2022-12-13T07:46:56;38.60;;;16.93;;
63114;SDS011;49208;50.874;6.466;2022-12-13T07:49:21;50.40;;;20.33;;
63114;SDS011;49208;50.874;6.466;2022-12-13T07:51:47;47.53;;;19.30;;
63114;SDS011;49208;50.874;6.466;2022-12-13T07:54:13;44.47;;;18.73;;
63114;SDS011;49208;50.874;6.466;2022-12-13T07:56:38;48.73;;;19.03;;
63114;SDS011;49208;50.874;6.466;2022-12-13T07:59:04;56.83;;;19.90;;
63114;SDS011;49208;50.874;6.466;2022-12-13T08:01:32;49.57;;;18.20;;
63114;SDS011;49208;50.874;6.466;2022-12-13T08:03:58;47.80;;;19.57;;
63114;SDS011;49208;50.874;6.466;2022-12-13T08:06:24;39.60;;;16.90;;
63114;SDS011;49208;50.874;6.466;2022-12-13T08:08:53;48.77;;;17.80;;
63114;SDS011;49208;50.874;6.466;2022-12-13T08:11:21;50.53;;;19.03;;
63114;SDS011;49208;50.874;6.466;2022-12-13T08:13:47;44.67;;;19.50;;
63114;SDS011;49208;50.874;6.466;2022-12-13T08:16:13;46.43;;;18.93;;
63114;SDS011;49208;50.874;6.466;2022-12-13T08:18:41;50.93;;;19.33;;
63114;SDS011;49208;50.874;6.466;2022-12-13T08:21:08;49.30;;;21.53;;
63114;SDS011;49208;50.874;6.466;2022-12-13T08:23:34;44.20;;;17.90;;
63114;SDS011;49208;50.874;6.466;2022-12-13T08:26:00;46.97;;;18.97;;
63114;SDS011;49208;50.874;6.466;2022-12-13T08:28:28;54.42;;;21.63;;
63114;SDS011;49208;50.874;6.466;2022-12-13T08:30:54;52.45;;;18.33;;
63114;SDS011;49208;50.874;6.466;2022-12-13T08:33:20;48.20;;;18.33;;
63114;SDS011;49208;50.874;6.466;2022-12-13T08:35:46;44.57;;;18.03;;
63114;SDS011;49208;50.874;6.466;2022-12-13T08:38:12;48.07;;;19.87;;
63114;SDS011;49208;50.874;6.466;2022-12-13T08:40:37;47.27;;;18.20;;
63114;SDS011;49208;50.874;6.466;2022-12-13T08:43:03;46.10;;;19.03;;
63114;SDS011;49208;50.874;6.466;2022-12-13T08:47:58;38.42;;;17.65;;
63114;SDS011;49208;50.874;6.466;2022-12-13T08:50:25;43.83;;;17.03;;
63114;SDS011;49208;50.874;6.466;2022-12-13T08:52:50;46.20;;;17.20;;
63114;SDS011;49208;50.874;6.466;2022-12-13T08:55:16;46.00;;;18.03;;
63114;SDS011;49208;50.874;6.466;2022-12-13T08:57:42;42.00;;;17.75;;
63114;SDS011;49208;50.874;6.466;2022-12-13T09:00:10;50.63;;;20.00;;
63114;SDS011;49208;50.874;6.466;2022-12-13T09:02:37;48.70;;;19.10;;
63114;SDS011;49208;50.874;6.466;2022-12-13T09:05:02;48.77;;;19.00;;
63114;SDS011;49208;50.874;6.466;2022-12-13T09:07:28;43.85;;;18.45;;
63114;SDS011;49208;50.874;6.466;2022-12-13T09:09:54;41.08;;;15.52;;
63114;SDS011;49208;50.874;6.466;2022-12-13T09:12:19;37.93;;;14.60;;
63114;SDS011;49208;50.874;6.466;2022-12-13T09:14:45;42.95;;;15.98;;
63114;SDS011;49208;50.874;6.466;2022-12-13T09:17:10;36.55;;;16.35;;
63114;SDS011;49208;50.874;6.466;2022-12-13T09:19:36;44.95;;;17.05;;
63114;SDS011;49208;50.874;6.466;2022-12-13T09:22:01;42.65;;;18.10;;
63114;SDS011;49208;50.874;6.466;2022-12-13T09:24:27;36.20;;;15.88;;
63114;SDS011;49208;50.874;6.466;2022-12-13T09:26:52;35.35;;;16.88;;
63114;SDS011;49208;50.874;6.466;2022-12-13T09:29:18;34.20;;;16.42;;
63114;SDS011;49208;50.874;6.466;2022-12-13T09:31:43;37.25;;;15.52;;
63114;SDS011;49208;50.874;6.466;2022-12-13T09:34:09;37.58;;;17.13;;
63114;SDS011;49208;50.874;6.466;2022-12-13T09:36:35;38.15;;;16.65;;
63114;SDS011;49208;50.874;6.466;2022-12-13T09:39:00;43.13;;;16.88;;
63114;SDS011;49208;50.874;6.466;2022-12-13T09:41:30;35.28;;;16.20;;
63114;SDS011;49208;50.874;6.466;2022-12-13T09:44:03;41.65;;;17.15;;
63114;SDS011;49208;50.874;6.466;2022-12-13T09:46:32;37.03;;;15.40;;
63114;SDS011;49208;50.874;6.466;2022-12-13T09:49:02;34.60;;;15.27;;
63114;SDS011;49208;50.874;6.466;2022-12-13T09:51:32;36.55;;;16.05;;
63114;SDS011;49208;50.874;6.466;2022-12-13T09:53:57;40.67;;;16.08;;
63114;SDS011;49208;50.874;6.466;2022-12-13T09:56:24;30.47;;;15.47;;
63114;SDS011;49208;50.874;6.466;2022-12-13T09:58:50;39.08;;;16.20;;
63114;SDS011;49208;50.874;6.466;2022-12-13T10:01:18;36.75;;;14.23;;
63114;SDS011;49208;50.874;6.466;2022-12-13T10:03:46;37.90;;;15.80;;
63114;SDS011;49208;50.874;6.466;2022-12-13T10:06:15;37.17;;;15.20;;
63114;SDS011;49208;50.874;6.466;2022-12-13T10:08:44;29.52;;;13.15;;
63114;SDS011;49208;50.874;6.466;2022-12-13T10:11:13;33.50;;;15.93;;
63114;SDS011;49208;50.874;6.466;2022-12-13T10:16:29;39.88;;;16.67;;
63114;SDS011;49208;50.874;6.466;2022-12-13T10:19:23;36.47;;;15.18;;
63114;SDS011;49208;50.874;6.466;2022-12-13T10:21:57;33.30;;;14.00;;
63114;SDS011;49208;50.874;6.466;2022-12-13T10:24:25;31.27;;;15.43;;
63114;SDS011;49208;50.874;6.466;2022-12-13T10:26:57;32.20;;;14.20;;
63114;SDS011;49208;50.874;6.466;2022-12-13T10:32:31;33.05;;;13.88;;
63114;SDS011;49208;50.874;6.466;2022-12-13T10:35:20;33.22;;;15.23;;
63114;SDS011;49208;50.874;6.466;2022-12-13T10:37:51;29.70;;;13.82;;
63114;SDS011;49208;50.874;6.466;2022-12-13T10:40:24;29.65;;;14.55;;
63114;SDS011;49208;50.874;6.466;2022-12-13T10:43:11;31.63;;;14.27;;
63114;SDS011;49208;50.874;6.466;2022-12-13T10:45:38;28.00;;;13.82;;
63114;SDS011;49208;50.874;6.466;2022-12-13T10:48:10;32.97;;;15.85;;
63114;SDS011;49208;50.874;6.466;2022-12-13T10:50:43;34.05;;;13.80;;
63114;SDS011;49208;50.874;6.466;2022-12-13T10:53:21;35.45;;;13.35;;
63114;SDS011;49208;50.874;6.466;2022-12-13T10:55:52;30.45;;;14.68;;
63114;SDS011;49208;50.874;6.466;2022-12-13T10:58:20;36.47;;;13.48;;
63114;SDS011;49208;50.874;6.466;2022-12-13T11:00:45;33.20;;;15.32;;
63114;SDS011;49208;50.874;6.466;2022-12-13T11:03:27;26.90;;;12.50;;
63114;SDS011;49208;50.874;6.466;2022-12-13T11:06:28;28.13;;;11.95;;
63114;SDS011;49208;50.874;6.466;2022-12-13T11:08:46;25.58;;;12.50;;
63114;SDS011;49208;50.874;6.466;2022-12-13T11:11:11;25.77;;;11.85;;
63114;SDS011;49208;50.874;6.466;2022-12-13T11:13:43;31.42;;;13.70;;
63114;SDS011;49208;50.874;6.466;2022-12-13T11:16:19;31.88;;;12.27;;
63114;SDS011;49208;50.874;6.466;2022-12-13T11:18:49;27.25;;;12.30;;
63114;SDS011;49208;50.874;6.466;2022-12-13T11:21:24;30.40;;;13.82;;
63114;SDS011;49208;50.874;6.466;2022-12-13T11:23:51;29.67;;;13.25;;
63114;SDS011;49208;50.874;6.466;2022-12-13T11:26:20;32.08;;;12.75;;
63114;SDS011;49208;50.874;6.466;2022-12-13T11:36:59;28.35;;;12.55;;
63114;SDS011;49208;50.874;6.466;2022-12-13T11:39:30;24.65;;;12.00;;
63114;SDS011;49208;50.874;6.466;2022-12-13T11:42:09;25.40;;;11.77;;
63114;SDS011;49208;50.874;6.466;2022-12-13T11:50:13;21.92;;;10.82;;
63114;SDS011;49208;50.874;6.466;2022-12-13T11:52:49;22.15;;;10.38;;
63114;SDS011;49208;50.874;6.466;2022-12-13T11:55:19;28.20;;;12.57;;
63114;SDS011;49208;50.874;6.466;2022-12-13T11:58:06;23.90;;;11.18;;
63114;SDS011;49208;50.874;6.466;2022-12-13T12:00:48;28.30;;;11.15;;
63114;SDS011;49208;50.874;6.466;2022-12-13T12:03:21;24.83;;;11.55;;
63114;SDS011;49208;50.874;6.466;2022-12-13T12:06:15;24.67;;;10.45;;
63114;SDS011;49208;50.874;6.466;2022-12-13T12:14:09;24.67;;;9.98;;
63114;SDS011;49208;50.874;6.466;2022-12-13T12:16:56;24.50;;;10.50;;
63114;SDS011;49208;50.874;6.466;2022-12-13T12:19:24;22.15;;;8.98;;
63114;SDS011;49208;50.874;6.466;2022-12-13T12:22:06;26.70;;;9.77;;
63114;SDS011;49208;50.874;6.466;2022-12-13T12:30:20;20.92;;;9.80;;
63114;SDS011;49208;50.874;6.466;2022-12-13T12:43:33;24.48;;;9.85;;
63114;SDS011;49208;50.874;6.466;2022-12-13T12:51:57;23.23;;;10.35;;
63114;SDS011;49208;50.874;6.466;2022-12-13T13:00:16;23.00;;;11.40;;
63114;SDS011;49208;50.874;6.466;2022-12-13T13:08:22;29.67;;;12.35;;
63114;SDS011;49208;50.874;6.466;2022-12-13T13:10:53;23.90;;;11.32;;
63114;SDS011;49208;50.874;6.466;2022-12-13T13:13:59;30.23;;;13.02;;
63114;SDS011;49208;50.874;6.466;2022-12-13T13:21:24;31.15;;;10.13;;
63114;SDS011;49208;50.874;6.466;2022-12-13T13:26:29;23.92;;;11.32;;
63114;SDS011;49208;50.874;6.466;2022-12-13T13:34:28;28.13;;;10.93;;
63114;SDS011;49208;50.874;6.466;2022-12-13T13:36:55;30.27;;;11.73;;
63114;SDS011;49208;50.874;6.466;2022-12-13T13:41:53;28.05;;;10.27;;
63114;SDS011;49208;50.874;6.466;2022-12-13T13:49:46;31.30;;;10.90;;
63114;SDS011;49208;50.874;6.466;2022-12-13T14:01:11;20.83;;;10.98;;
63114;SDS011;49208;50.874;6.466;2022-12-13T14:09:25;23.58;;;10.45;;
63114;SDS011;49208;50.874;6.466;2022-12-13T14:12:30;24.95;;;10.80;;
63114;SDS011;49208;50.874;6.466;2022-12-13T14:14:53;26.42;;;11.50;;
63114;SDS011;49208;50.874;6.466;2022-12-13T14:23:25;27.80;;;9.98;;
63114;SDS011;49208;50.874;6.466;2022-12-13T14:26:23;23.17;;;9.98;;
63114;SDS011;49208;50.874;6.466;2022-12-13T14:29:00;24.40;;;10.60;;
63114;SDS011;49208;50.874;6.466;2022-12-13T14:34:23;23.25;;;9.35;;
63114;SDS011;49208;50.874;6.466;2022-12-13T14:37:01;22.30;;;10.80;;
63114;SDS011;49208;50.874;6.466;2022-12-13T14:39:29;27.58;;;10.07;;
63114;SDS011;49208;50.874;6.466;2022-12-13T14:41:58;26.60;;;11.20;;
63114;SDS011;49208;50.874;6.466;2022-12-13T14:44:25;23.67;;;11.40;;
63114;SDS011;49208;50.874;6.466;2022-12-13T14:46:54;26.20;;;10.80;;
63114;SDS011;49208;50.874;6.466;2022-12-13T14:49:23;28.20;;;10.25;;
63114;SDS011;49208;50.874;6.466;2022-12-13T14:51:55;27.08;;;11.15;;
63114;SDS011;49208;50.874;6.466;2022-12-13T14:54:29;25.25;;;10.70;;
63114;SDS011;49208;50.874;6.466;2022-12-13T14:57:18;21.75;;;10.40;;
63114;SDS011;49208;50.874;6.466;2022-12-13T14:59:46;29.75;;;12.68;;
63114;SDS011;49208;50.874;6.466;2022-12-13T15:02:17;24.80;;;10.82;;
63114;SDS011;49208;50.874;6.466;2022-12-13T15:04:45;36.47;;;11.80;;
63114;SDS011;49208;50.874;6.466;2022-12-13T15:07:16;25.85;;;11.57;;
63114;SDS011;49208;50.874;6.466;2022-12-13T15:10:00;27.73;;;10.55;;
63114;SDS011;49208;50.874;6.466;2022-12-13T15:12:28;22.73;;;10.32;;
63114;SDS011;49208;50.874;6.466;2022-12-13T15:14:56;25.10;;;12.27;;
63114;SDS011;49208;50.874;6.466;2022-12-13T15:17:37;27.35;;;10.10;;
63114;SDS011;49208;50.874;6.466;2022-12-13T15:22:44;27.05;;;12.18;;
63114;SDS011;49208;50.874;6.466;2022-12-13T15:25:13;29.88;;;11.68;;
63114;SDS011;49208;50.874;6.466;2022-12-13T15:27:40;23.60;;;11.07;;
63114;SDS011;49208;50.874;6.466;2022-12-13T15:30:06;25.08;;;11.65;;
63114;SDS011;49208;50.874;6.466;2022-12-13T15:32:36;26.85;;;10.70;;
63114;SDS011;49208;50.874;6.466;2022-12-13T15:35:31;27.98;;;12.20;;
63114;SDS011;49208;50.874;6.466;2022-12-13T15:38:01;25.92;;;12.07;;
63114;SDS011;49208;50.874;6.466;2022-12-13T15:40:27;30.35;;;10.95;;
63114;SDS011;49208;50.874;6.466;2022-12-13T15:42:53;28.17;;;11.52;;
63114;SDS011;49208;50.874;6.466;2022-12-13T15:45:20;24.20;;;12.13;;
63114;SDS011;49208;50.874;6.466;2022-12-13T15:47:48;30.77;;;11.70;;
63114;SDS011;49208;50.874;6.466;2022-12-13T15:50:28;23.47;;;11.33;;
63114;SDS011;49208;50.874;6.466;2022-12-13T15:53:23;27.10;;;10.77;;
63114;SDS011;49208;50.874;6.466;2022-12-13T15:55:51;27.92;;;12.05;;
63114;SDS011;49208;50.874;6.466;2022-12-13T15:58:33;26.00;;;11.57;;
63114;SDS011;49208;50.874;6.466;2022-12-13T16:00:59;24.77;;;11.73;;
63114;SDS011;49208;50.874;6.466;2022-12-13T16:03:36;32.38;;;12.82;;
63114;SDS011;49208;50.874;6.466;2022-12-13T16:06:06;33.63;;;13.10;;
63114;SDS011;49208;50.874;6.466;2022-12-13T16:08:34;28.23;;;13.10;;
63114;SDS011;49208;50.874;6.466;2022-12-13T16:11:03;28.30;;;12.50;;
63114;SDS011;49208;50.874;6.466;2022-12-13T16:13:32;28.60;;;12.02;;
63114;SDS011;49208;50.874;6.466;2022-12-13T16:16:01;25.55;;;11.73;;
63114;SDS011;49208;50.874;6.466;2022-12-13T16:18:51;26.35;;;12.07;;
63114;SDS011;49208;50.874;6.466;2022-12-13T16:21:19;30.17;;;9.93;;
63114;SDS011;49208;50.874;6.466;2022-12-13T16:23:44;29.48;;;11.25;;
63114;SDS011;49208;50.874;6.466;2022-12-13T16:26:13;27.75;;;12.30;;
63114;SDS011;49208;50.874;6.466;2022-12-13T16:28:40;23.27;;;10.93;;
63114;SDS011;49208;50.874;6.466;2022-12-13T16:31:15;23.63;;;12.45;;
63114;SDS011;49208;50.874;6.466;2022-12-13T16:33:45;25.17;;;10.75;;
63114;SDS011;49208;50.874;6.466;2022-12-13T16:36:10;26.30;;;11.48;;
63114;SDS011;49208;50.874;6.466;2022-12-13T16:38:36;25.83;;;12.20;;
63114;SDS011;49208;50.874;6.466;2022-12-13T16:41:02;27.90;;;11.90;;
63114;SDS011;49208;50.874;6.466;2022-12-13T16:43:27;29.65;;;11.90;;
63114;SDS011;49208;50.874;6.466;2022-12-13T16:45:56;20.08;;;9.90;;
63114;SDS011;49208;50.874;6.466;2022-12-13T16:48:22;25.08;;;11.05;;
63114;SDS011;49208;50.874;6.466;2022-12-13T16:50:48;30.00;;;10.32;;
63114;SDS011;49208;50.874;6.466;2022-12-13T16:55:41;22.90;;;10.38;;
63114;SDS011;49208;50.874;6.466;2022-12-13T16:58:09;23.58;;;11.07;;
63114;SDS011;49208;50.874;6.466;2022-12-13T17:00:36;22.13;;;10.90;;
63114;SDS011;49208;50.874;6.466;2022-12-13T17:03:03;26.13;;;12.35;;
63114;SDS011;49208;50.874;6.466;2022-12-13T17:05:28;21.45;;;10.10;;
63114;SDS011;49208;50.874;6.466;2022-12-13T17:07:55;26.85;;;9.85;;
63114;SDS011;49208;50.874;6.466;2022-12-13T17:10:21;26.42;;;11.13;;
63114;SDS011;49208;50.874;6.466;2022-12-13T17:12:46;29.95;;;12.23;;
63114;SDS011;49208;50.874;6.466;2022-12-13T17:15:12;24.92;;;11.07;;
63114;SDS011;49208;50.874;6.466;2022-12-13T17:17:38;27.67;;;11.63;;
63114;SDS011;49208;50.874;6.466;2022-12-13T17:20:05;29.00;;;11.73;;
63114;SDS011;49208;50.874;6.466;2022-12-13T17:22:35;22.67;;;10.30;;
63114;SDS011;49208;50.874;6.466;2022-12-13T17:25:01;28.35;;;11.10;;
63114;SDS011;49208;50.874;6.466;2022-12-13T17:27:27;23.97;;;12.07;;
63114;SDS011;49208;50.874;6.466;2022-12-13T17:29:54;24.67;;;11.43;;
63114;SDS011;49208;50.874;6.466;2022-12-13T17:32:19;28.40;;;11.77;;
63114;SDS011;49208;50.874;6.466;2022-12-13T17:34:45;24.45;;;9.68;;
63114;SDS011;49208;50.874;6.466;2022-12-13T17:37:10;26.73;;;10.88;;
63114;SDS011;49208;50.874;6.466;2022-12-13T17:39:35;26.70;;;10.25;;
63114;SDS011;49208;50.874;6.466;2022-12-13T17:42:01;24.70;;;11.45;;
63114;SDS011;49208;50.874;6.466;2022-12-13T17:44:27;26.52;;;12.60;;
63114;SDS011;49208;50.874;6.466;2022-12-13T17:46:52;28.65;;;12.93;;
63114;SDS011;49208;50.874;6.466;2022-12-13T17:49:18;26.08;;;10.65;;
63114;SDS011;49208;50.874;6.466;2022-12-13T17:51:44;31.73;;;11.27;;
63114;SDS011;49208;50.874;6.466;2022-12-13T17:54:09;29.10;;;11.88;;
63114;SDS011;49208;50.874;6.466;2022-12-13T17:56:35;29.20;;;11.05;;
63114;SDS011;49208;50.874;6.466;2022-12-13T17:59:02;24.17;;;11.02;;
63114;SDS011;49208;50.874;6.466;2022-12-13T18:01:28;20.77;;;10.27;;
63114;SDS011;49208;50.874;6.466;2022-12-13T18:03:55;25.40;;;9.55;;
63114;SDS011;49208;50.874;6.466;2022-12-13T18:06:21;22.63;;;9.80;;
63114;SDS011;49208;50.874;6.466;2022-12-13T18:08:48;32.75;;;11.75;;
63114;SDS011;49208;50.874;6.466;2022-12-13T18:11:14;23.13;;;9.80;;
63114;SDS011;49208;50.874;6.466;2022-12-13T18:13:40;27.83;;;11.10;;
63114;SDS011;49208;50.874;6.466;2022-12-13T18:16:07;24.02;;;10.63;;
63114;SDS011;49208;50.874;6.466;2022-12-13T18:18:33;25.65;;;10.02;;
63114;SDS011;49208;50.874;6.466;2022-12-13T18:21:06;31.10;;;10.95;;
63114;SDS011;49208;50.874;6.466;2022-12-13T18:23:36;25.13;;;11.18;;
63114;SDS011;49208;50.874;6.466;2022-12-13T18:26:03;28.63;;;11.88;;
63114;SDS011;49208;50.874;6.466;2022-12-13T18:28:30;25.58;;;9.40;;
63114;SDS011;49208;50.874;6.466;2022-12-13T18:30:56;26.77;;;11.00;;
63114;SDS011;49208;50.874;6.466;2022-12-13T18:33:23;25.05;;;10.50;;
63114;SDS011;49208;50.874;6.466;2022-12-13T18:35:48;30.35;;;11.20;;
63114;SDS011;49208;50.874;6.466;2022-12-13T18:38:14;27.60;;;11.20;;
63114;SDS011;49208;50.874;6.466;2022-12-13T18:40:39;27.20;;;10.60;;
63114;SDS011;49208;50.874;6.466;2022-12-13T18:43:04;24.45;;;10.30;;
63114;SDS011;49208;50.874;6.466;2022-12-13T18:45:30;27.15;;;10.68;;
63114;SDS011;49208;50.874;6.466;2022-12-13T18:47:56;25.40;;;10.55;;
63114;SDS011;49208;50.874;6.466;2022-12-13T18:50:21;19.45;;;9.57;;
63114;SDS011;49208;50.874;6.466;2022-12-13T18:52:47;26.92;;;10.65;;
63114;SDS011;49208;50.874;6.466;2022-12-13T18:55:12;24.05;;;10.15;;
63114;SDS011;49208;50.874;6.466;2022-12-13T18:57:39;24.73;;;9.68;;
63114;SDS011;49208;50.874;6.466;2022-12-13T19:00:04;28.98;;;11.75;;
63114;SDS011;49208;50.874;6.466;2022-12-13T19:02:31;27.05;;;11.45;;
63114;SDS011;49208;50.874;6.466;2022-12-13T19:04:57;21.80;;;10.73;;
63114;SDS011;49208;50.874;6.466;2022-12-13T19:07:22;34.13;;;10.38;;
63114;SDS011;49208;50.874;6.466;2022-12-13T19:09:47;24.08;;;10.10;;
63114;SDS011;49208;50.874;6.466;2022-12-13T19:12:13;27.55;;;10.75;;
63114;SDS011;49208;50.874;6.466;2022-12-13T19:14:38;28.45;;;11.07;;
63114;SDS011;49208;50.874;6.466;2022-12-13T19:17:04;26.52;;;10.18;;
63114;SDS011;49208;50.874;6.466;2022-12-13T19:19:29;25.17;;;11.15;;
63114;SDS011;49208;50.874;6.466;2022-12-13T19:21:55;22.75;;;9.68;;
63114;SDS011;49208;50.874;6.466;2022-12-13T19:24:20;29.00;;;11.45;;
63114;SDS011;49208;50.874;6.466;2022-12-13T19:26:45;26.95;;;10.75;;
63114;SDS011;49208;50.874;6.466;2022-12-13T19:29:11;29.27;;;12.13;;
63114;SDS011;49208;50.874;6.466;2022-12-13T19:31:38;21.17;;;10.17;;
63114;SDS011;49208;50.874;6.466;2022-12-13T19:34:03;23.10;;;10.18;;
63114;SDS011;49208;50.874;6.466;2022-12-13T19:36:29;21.70;;;9.68;;
63114;SDS011;49208;50.874;6.466;2022-12-13T19:38:56;20.10;;;9.55;;
63114;SDS011;49208;50.874;6.466;2022-12-13T19:41:21;22.08;;;11.73;;
63114;SDS011;49208;50.874;6.466;2022-12-13T19:43:47;22.35;;;10.52;;
63114;SDS011;49208;50.874;6.466;2022-12-13T19:46:16;20.85;;;10.18;;
63114;SDS011;49208;50.874;6.466;2022-12-13T19:48:42;25.25;;;11.25;;
63114;SDS011;49208;50.874;6.466;2022-12-13T19:51:08;21.95;;;9.93;;
63114;SDS011;49208;50.874;6.466;2022-12-13T19:53:34;24.80;;;10.90;;
63114;SDS011;49208;50.874;6.466;2022-12-13T19:56:01;24.80;;;10.57;;
63114;SDS011;49208;50.874;6.466;2022-12-13T19:58:33;21.10;;;10.73;;
63114;SDS011;49208;50.874;6.466;2022-12-13T20:01:02;24.75;;;11.73;;
63114;SDS011;49208;50.874;6.466;2022-12-13T20:03:32;25.42;;;12.75;;
63114;SDS011;49208;50.874;6.466;2022-12-13T20:05:58;27.92;;;15.15;;
63114;SDS011;49208;50.874;6.466;2022-12-13T20:08:25;24.70;;;12.88;;
63114;SDS011;49208;50.874;6.466;2022-12-13T20:11:02;27.92;;;13.45;;
63114;SDS011;49208;50.874;6.466;2022-12-13T20:13:29;34.58;;;14.63;;
63114;SDS011;49208;50.874;6.466;2022-12-13T20:15:56;26.27;;;13.93;;
63114;SDS011;49208;50.874;6.466;2022-12-13T20:18:21;25.75;;;12.90;;
63114;SDS011;49208;50.874;6.466;2022-12-13T20:20:46;26.73;;;12.55;;
63114;SDS011;49208;50.874;6.466;2022-12-13T20:23:12;29.27;;;12.52;;
63114;SDS011;49208;50.874;6.466;2022-12-13T20:25:37;21.02;;;11.52;;
63114;SDS011;49208;50.874;6.466;2022-12-13T20:28:04;27.70;;;11.65;;
63114;SDS011;49208;50.874;6.466;2022-12-13T20:30:30;27.77;;;12.88;;
63114;SDS011;49208;50.874;6.466;2022-12-13T20:32:57;23.67;;;10.27;;
63114;SDS011;49208;50.874;6.466;2022-12-13T20:35:23;31.08;;;11.27;;
63114;SDS011;49208;50.874;6.466;2022-12-13T20:37:49;25.85;;;10.85;;
63114;SDS011;49208;50.874;6.466;2022-12-13T20:40:14;27.10;;;10.57;;
63114;SDS011;49208;50.874;6.466;2022-12-13T20:42:40;25.73;;;11.65;;
63114;SDS011;49208;50.874;6.466;2022-12-13T20:45:06;26.52;;;10.25;;
63114;SDS011;49208;50.874;6.466;2022-12-13T20:47:32;26.95;;;11.77;;
63114;SDS011;49208;50.874;6.466;2022-12-13T20:49:57;26.73;;;10.75;;
63114;SDS011;49208;50.874;6.466;2022-12-13T20:52:23;24.42;;;12.75;;
63114;SDS011;49208;50.874;6.466;2022-12-13T20:54:48;28.38;;;11.15;;
63114;SDS011;49208;50.874;6.466;2022-12-13T20:57:13;26.35;;;10.88;;
63114;SDS011;49208;50.874;6.466;2022-12-13T20:59:39;24.67;;;10.20;;
63114;SDS011;49208;50.874;6.466;2022-12-13T21:02:04;28.00;;;10.43;;
63114;SDS011;49208;50.874;6.466;2022-12-13T21:04:30;26.00;;;10.02;;
63114;SDS011;49208;50.874;6.466;2022-12-13T21:06:55;29.75;;;10.95;;
63114;SDS011;49208;50.874;6.466;2022-12-13T21:09:20;18.23;;;9.63;;
63114;SDS011;49208;50.874;6.466;2022-12-13T21:11:46;20.73;;;10.60;;
63114;SDS011;49208;50.874;6.466;2022-12-13T21:14:21;25.00;;;11.20;;
63114;SDS011;49208;50.874;6.466;2022-12-13T21:16:59;28.00;;;10.35;;
63114;SDS011;49208;50.874;6.466;2022-12-13T21:19:27;24.70;;;10.45;;
63114;SDS011;49208;50.874;6.466;2022-12-13T21:21:54;24.00;;;10.15;;
63114;SDS011;49208;50.874;6.466;2022-12-13T21:24:20;22.30;;;10.32;;
63114;SDS011;49208;50.874;6.466;2022-12-13T21:26:47;22.60;;;10.55;;
63114;SDS011;49208;50.874;6.466;2022-12-13T21:29:13;23.27;;;10.88;;
63114;SDS011;49208;50.874;6.466;2022-12-13T21:31:40;25.27;;;11.43;;
63114;SDS011;49208;50.874;6.466;2022-12-13T21:34:07;21.02;;;10.15;;
63114;SDS011;49208;50.874;6.466;2022-12-13T21:36:37;26.73;;;10.50;;
63114;SDS011;49208;50.874;6.466;2022-12-13T21:39:10;24.33;;;10.73;;
63114;SDS011;49208;50.874;6.466;2022-12-13T21:41:44;24.30;;;10.32;;
63114;SDS011;49208;50.874;6.466;2022-12-13T21:44:10;24.55;;;10.18;;
63114;SDS011;49208;50.874;6.466;2022-12-13T21:46:37;23.25;;;10.32;;
63114;SDS011;49208;50.874;6.466;2022-12-13T21:49:02;24.00;;;11.70;;
63114;SDS011;49208;50.874;6.466;2022-12-13T21:51:28;27.58;;;10.90;;
63114;SDS011;49208;50.874;6.466;2022-12-13T21:53:55;29.73;;;9.97;;
63114;SDS011;49208;50.874;6.466;2022-12-13T21:56:22;20.77;;;9.57;;
63114;SDS011;49208;50.874;6.466;2022-12-13T21:59:11;27.95;;;11.18;;
63114;SDS011;49208;50.874;6.466;2022-12-13T22:01:43;32.22;;;10.95;;
63114;SDS011;49208;50.874;6.466;2022-12-13T22:07:03;26.52;;;10.30;;
63114;SDS011;49208;50.874;6.466;2022-12-13T22:09:29;24.33;;;10.60;;
63114;SDS011;49208;50.874;6.466;2022-12-13T22:11:55;23.07;;;11.57;;
63114;SDS011;49208;50.874;6.466;2022-12-13T22:14:20;26.17;;;10.80;;
63114;SDS011;49208;50.874;6.466;2022-12-13T22:16:46;21.13;;;8.80;;
63114;SDS011;49208;50.874;6.466;2022-12-13T22:19:12;23.23;;;9.88;;
63114;SDS011;49208;50.874;6.466;2022-12-13T22:21:38;17.75;;;9.48;;
63114;SDS011;49208;50.874;6.466;2022-12-13T22:24:04;20.80;;;9.32;;
63114;SDS011;49208;50.874;6.466;2022-12-13T22:26:30;25.98;;;10.68;;
63114;SDS011;49208;50.874;6.466;2022-12-13T22:28:56;26.23;;;9.00;;
63114;SDS011;49208;50.874;6.466;2022-12-13T22:31:22;23.75;;;9.70;;
63114;SDS011;49208;50.874;6.466;2022-12-13T22:33:48;18.37;;;9.57;;
63114;SDS011;49208;50.874;6.466;2022-12-13T22:36:13;21.15;;;9.38;;
63114;SDS011;49208;50.874;6.466;2022-12-13T22:38:39;27.90;;;9.90;;
63114;SDS011;49208;50.874;6.466;2022-12-13T22:41:04;26.85;;;9.27;;
63114;SDS011;49208;50.874;6.466;2022-12-13T22:43:33;22.67;;;10.05;;
63114;SDS011;49208;50.874;6.466;2022-12-13T22:46:03;20.27;;;9.13;;
63114;SDS011;49208;50.874;6.466;2022-12-13T22:48:32;22.03;;;9.73;;
63114;SDS011;49208;50.874;6.466;2022-12-13T22:51:01;27.47;;;10.43;;
63114;SDS011;49208;50.874;6.466;2022-12-13T22:53:28;20.57;;;9.97;;
63114;SDS011;49208;50.874;6.466;2022-12-13T22:56:01;24.13;;;9.07;;
63114;SDS011;49208;50.874;6.466;2022-12-13T22:58:31;21.83;;;10.13;;
